This is the latest recevied weather packets stored in our database for station/object DM0MR. If no packets are shown the sender has not sent any weather packets the latest 10 day(s).
| Time | Temp. | Humidity | Pressure | Rain* | Wind** | Luminosity | Snow |
|---|---|---|---|---|---|---|---|
| 1788143899 | 60° F | 86% | 757.3 mmHg | 0 in | - | - | - |
| 1788142100 | 61° F | 85% | 757.4 mmHg | 0 in | - | - | - |
| 1788141200 | 60° F | 85% | 757.3 mmHg | 0 in | - | - | - |
| 1788140300 | 61° F | 84% | 757.6 mmHg | 0 in | - | - | - |
| 1788137600 | 61° F | 83% | 757.8 mmHg | 0 in | - | - | - |
| 1788136700 | 58° F | 90% | 757.9 mmHg | 0 in | - | - | - |
| 1788135800 | 58° F | 89% | 757.9 mmHg | 0 in | - | - | - |
| 1788134900 | 58° F | 88% | 757.9 mmHg | 0 in | - | - | - |
| 1788134000 | 58° F | 88% | 758.1 mmHg | 0 in | - | - | - |
| 1788133097 | 58° F | 87% | 758.2 mmHg | 0 in | - | - | - |
| 1788130397 | 59° F | 87% | 758.6 mmHg | 0 in | - | - | - |
| 1788128598 | 59° F | 86% | 758.6 mmHg | 0 in | - | - | - |
| 1788127697 | 59° F | 84% | 758.5 mmHg | 0 in | - | - | - |
| 1788125898 | 60° F | 85% | 758.4 mmHg | 0 in | - | - | - |
| 1788121400 | 61° F | 82% | 758.6 mmHg | 0 in | - | - | - |
| 1788117800 | 63° F | 78% | 758.5 mmHg | 0 in | - | - | - |
| 1788109698 | 72° F | 56% | 758 mmHg | 0 in | - | - | - |
| 1788108797 | 72° F | 53% | 758 mmHg | 0 in | - | - | - |
| 1788106998 | 73° F | 53% | 757.9 mmHg | 0 in | - | - | - |
| 1788105198 | 74° F | 52% | 757.9 mmHg | 0 in | - | - | - |
| 1788103398 | 75° F | 51% | 758 mmHg | 0 in | - | - | - |
| 1788102498 | 75° F | 50% | 757.9 mmHg | 0 in | - | - | - |
| 1788100698 | 76° F | 50% | 757.9 mmHg | 0 in | - | - | - |
| 1788096197 | 80° F | 48% | 757.8 mmHg | 0 in | - | - | - |
| 1788093497 | 79° F | 48% | 757.7 mmHg | 0 in | - | - | - |
* Rain latest hour (hover to see other rain measurements)
** Current wind speed in m/s (hover to see current wind gust speed)